createdAt,value
2022-10-31T00:01:42.658Z,24.40
2022-10-31T00:04:15.995Z,27.07
2022-10-31T00:06:48.702Z,28.60
2022-10-31T00:09:18.512Z,32.37
2022-10-31T00:12:01.602Z,22.40
2022-10-31T00:14:39.550Z,29.80
2022-10-31T00:17:14.791Z,25.13
2022-10-31T00:19:44.982Z,33.03
2022-10-31T00:22:23.986Z,27.13
2022-10-31T00:24:55.328Z,28.27
2022-10-31T00:27:30.293Z,26.53
2022-10-31T00:30:02.294Z,29.97
2022-10-31T00:32:33.016Z,27.27
2022-10-31T00:35:06.799Z,25.20
2022-10-31T00:37:43.505Z,23.03
2022-10-31T00:40:15.901Z,24.57
2022-10-31T00:42:46.448Z,21.97
2022-10-31T00:45:16.569Z,24.80
2022-10-31T00:47:48.260Z,26.80
2022-10-31T00:50:29.058Z,31.23
2022-10-31T00:53:09.504Z,25.80
2022-10-31T00:55:41.504Z,29.17
2022-10-31T00:58:12.393Z,29.63
2022-10-31T01:00:46.844Z,26.83
2022-10-31T01:03:22.701Z,29.67
2022-10-31T01:06:03.057Z,28.00
2022-10-31T01:08:46.976Z,29.83
2022-10-31T01:11:19.201Z,31.70
2022-10-31T01:13:58.490Z,34.33
2022-10-31T01:16:30.968Z,30.53
2022-10-31T01:19:03.215Z,32.80
2022-10-31T01:21:43.652Z,36.80
2022-10-31T01:24:20.920Z,32.97
2022-10-31T01:26:52.955Z,29.53
2022-10-31T01:29:24.121Z,34.30
2022-10-31T01:31:55.924Z,30.03
2022-10-31T01:34:32.693Z,29.07
2022-10-31T01:37:07.828Z,29.03
2022-10-31T01:39:41.496Z,27.57
2022-10-31T01:42:21.672Z,32.37
2022-10-31T01:45:02.376Z,38.87
2022-10-31T01:47:43.908Z,34.60
2022-10-31T01:50:18.755Z,31.07
2022-10-31T01:52:54.743Z,35.53
2022-10-31T01:55:30.378Z,36.80
2022-10-31T01:58:06.995Z,47.33
2022-10-31T02:00:49.296Z,39.03
2022-10-31T02:03:38.375Z,33.77
2022-10-31T02:06:56.616Z,28.20
2022-10-31T02:09:41.318Z,27.77
2022-10-31T02:12:16.907Z,27.23
2022-10-31T02:14:56.972Z,28.70
2022-10-31T02:17:29.799Z,30.77
2022-10-31T02:20:15.995Z,26.50
2022-10-31T02:23:15.762Z,23.80
2022-10-31T02:26:04.103Z,22.40
2022-10-31T02:29:01.820Z,25.60
2022-10-31T02:31:59.422Z,23.20
2022-10-31T02:34:37.745Z,31.70
2022-10-31T02:37:20.934Z,34.97
2022-10-31T02:40:02.479Z,29.40
2022-10-31T02:42:58.763Z,34.47
2022-10-31T02:45:36.108Z,45.87
2022-10-31T02:48:15.899Z,60.47
2022-10-31T02:50:52.006Z,35.77
2022-10-31T02:53:22.107Z,33.93
2022-10-31T02:55:59.681Z,33.50
2022-10-31T02:58:38.122Z,30.63
2022-10-31T03:01:36.219Z,28.97
2022-10-31T03:04:49.925Z,29.70
2022-10-31T03:07:28.763Z,26.33
2022-10-31T03:10:11.909Z,26.27
2022-10-31T03:12:48.796Z,25.90
2022-10-31T03:15:35.971Z,28.33
2022-10-31T03:18:13.458Z,25.80
2022-10-31T03:20:56.413Z,26.30
2022-10-31T03:23:29.930Z,33.30
2022-10-31T03:26:06.618Z,33.67
2022-10-31T03:28:47.550Z,25.13
2022-10-31T03:31:24.099Z,22.00
2022-10-31T03:33:59.399Z,28.27
2022-10-31T03:36:44.254Z,27.73
2022-10-31T03:39:37.651Z,27.43
2022-10-31T03:42:15.989Z,23.27
2022-10-31T03:45:08.311Z,25.17
2022-10-31T03:47:48.889Z,24.57
2022-10-31T03:50:25.850Z,28.87
2022-10-31T03:53:06.069Z,25.77
2022-10-31T03:55:58.277Z,26.77
2022-10-31T03:58:50.042Z,24.90
2022-10-31T04:01:40.676Z,24.20
2022-10-31T04:04:23.669Z,23.27
2022-10-31T04:07:07.472Z,30.07
2022-10-31T04:09:48.318Z,25.87
2022-10-31T04:12:19.573Z,24.87
2022-10-31T04:14:59.156Z,19.40
2022-10-31T04:17:33.557Z,25.30
2022-10-31T04:20:12.187Z,23.57
2022-10-31T04:22:53.673Z,22.50
2022-10-31T04:25:44.729Z,25.77
2022-10-31T04:30:53.629Z,25.00
2022-10-31T04:33:25.553Z,19.53
2022-10-31T04:35:56.867Z,26.43
2022-10-31T04:38:26.534Z,27.83
2022-10-31T04:41:00.405Z,27.87
2022-10-31T04:43:50.636Z,27.00
2022-10-31T04:46:25.372Z,26.77
2022-10-31T04:48:56.495Z,27.87
2022-10-31T04:51:29.964Z,28.07
2022-10-31T04:54:02.172Z,28.20
2022-10-31T04:56:35.829Z,25.90
2022-10-31T04:59:16.568Z,27.87
2022-10-31T05:02:01.008Z,27.53
2022-10-31T05:04:47.503Z,26.77
2022-10-31T05:07:17.008Z,24.23
2022-10-31T05:09:47.141Z,24.30
2022-10-31T05:12:24.676Z,29.97
2022-10-31T05:15:12.512Z,22.90
2022-10-31T05:18:01.566Z,24.47
2022-10-31T05:21:11.244Z,27.90
2022-10-31T05:23:49.104Z,24.87
2022-10-31T05:26:19.711Z,27.13
2022-10-31T05:28:54.924Z,27.30
2022-10-31T05:31:33.352Z,28.03
2022-10-31T05:34:08.858Z,53.50
2022-10-31T05:37:13.995Z,31.57
2022-10-31T05:39:46.244Z,46.77
2022-10-31T05:42:20.756Z,37.70
2022-10-31T05:44:54.559Z,33.33
2022-10-31T05:47:40.360Z,26.60
2022-10-31T05:50:43.930Z,28.73
2022-10-31T05:53:20.359Z,33.20
2022-10-31T05:55:58.820Z,32.10
2022-10-31T05:58:36.774Z,32.53
2022-10-31T06:01:29.675Z,30.97
2022-10-31T06:04:07.895Z,25.87
2022-10-31T06:06:42.206Z,26.97
2022-10-31T06:09:19.735Z,28.87
2022-10-31T06:11:53.523Z,34.07
2022-10-31T06:14:29.911Z,28.83
2022-10-31T06:17:04.442Z,22.57
2022-10-31T06:19:53.281Z,25.60
2022-10-31T06:22:27.813Z,26.17
2022-10-31T06:25:00.623Z,30.07
2022-10-31T06:27:41.896Z,27.77
2022-10-31T06:30:17.482Z,38.13
2022-10-31T06:32:51.525Z,29.87
2022-10-31T06:35:27.374Z,29.27
2022-10-31T06:37:58.438Z,27.47
2022-10-31T06:40:41.964Z,35.40
2022-10-31T06:43:53.843Z,31.03
2022-10-31T06:46:41.492Z,36.13
2022-10-31T06:49:38.050Z,32.43
2022-10-31T06:52:23.770Z,36.73
2022-10-31T06:54:57.766Z,40.53
2022-10-31T06:57:28.487Z,39.23
2022-10-31T07:00:01.435Z,38.63
2022-10-31T07:02:57.770Z,37.50
2022-10-31T07:05:37.837Z,37.27
2022-10-31T07:08:13.115Z,39.50
2022-10-31T07:10:45.337Z,41.07
2022-10-31T07:13:19.380Z,41.47
2022-10-31T07:15:57.613Z,45.33
2022-10-31T07:18:31.385Z,49.07
2022-10-31T07:21:19.938Z,47.77
2022-10-31T07:23:59.097Z,40.70
2022-10-31T07:26:50.439Z,41.03
2022-10-31T07:29:22.597Z,53.03
2022-10-31T07:31:56.932Z,41.87
2022-10-31T07:34:31.064Z,51.03
2022-10-31T07:40:58.866Z,46.27
2022-10-31T07:43:41.087Z,50.40
2022-10-31T07:46:28.409Z,42.33
2022-10-31T07:49:42.097Z,50.67
2022-10-31T07:53:04.243Z,49.67
2022-10-31T07:56:24.009Z,43.90
2022-10-31T07:59:01.055Z,45.43
2022-10-31T08:01:50.677Z,45.90
2022-10-31T08:04:46.394Z,40.97
2022-10-31T08:08:15.079Z,43.37
2022-10-31T08:10:53.609Z,30.80
2022-10-31T08:13:27.696Z,29.23
2022-10-31T08:16:05.676Z,28.17
2022-10-31T08:18:44.380Z,17.40
2022-10-31T08:21:26.619Z,16.48
2022-10-31T08:24:41.885Z,17.33
2022-10-31T08:27:22.247Z,19.88
2022-10-31T08:30:20.315Z,18.65
2022-10-31T08:33:21.555Z,15.07
2022-10-31T08:36:17.630Z,14.35
2022-10-31T08:39:11.693Z,17.42
2022-10-31T08:41:45.762Z,14.40
2022-10-31T08:44:23.651Z,15.65
2022-10-31T08:46:55.158Z,18.85
2022-10-31T08:49:26.614Z,10.65
2022-10-31T08:55:04.131Z,15.57
2022-10-31T08:57:57.587Z,22.05
2022-10-31T09:00:35.425Z,17.88
2022-10-31T09:03:26.337Z,13.73
2022-10-31T09:05:59.887Z,14.70
2022-10-31T09:08:32.905Z,10.75
2022-10-31T09:11:04.103Z,20.83
2022-10-31T09:13:51.246Z,11.93
2022-10-31T09:16:41.930Z,13.23
2022-10-31T09:19:18.015Z,15.05
2022-10-31T09:21:49.001Z,16.77
2022-10-31T09:24:18.470Z,18.65
2022-10-31T09:26:47.362Z,16.45
2022-10-31T09:29:20.053Z,25.73
2022-10-31T09:31:58.913Z,14.30
2022-10-31T09:34:30.542Z,18.38
2022-10-31T09:37:08.059Z,16.50
2022-10-31T09:39:38.653Z,13.98
2022-10-31T09:42:46.073Z,11.98
2022-10-31T09:45:26.672Z,12.52
2022-10-31T09:48:14.065Z,12.10
2022-10-31T09:51:05.797Z,28.27
2022-10-31T09:54:07.680Z,24.65
2022-10-31T09:56:37.209Z,11.50
2022-10-31T09:59:14.410Z,49.45
2022-10-31T10:01:50.105Z,10.05
2022-10-31T10:04:38.851Z,19.33
2022-10-31T10:07:23.770Z,22.38
2022-10-31T10:10:21.024Z,13.18
2022-10-31T10:13:33.354Z,13.15
2022-10-31T10:16:27.536Z,15.07
2022-10-31T10:19:08.313Z,10.40
2022-10-31T10:21:48.207Z,13.27
2022-10-31T10:24:37.392Z,12.68
2022-10-31T10:27:22.198Z,14.40
2022-10-31T10:30:01.548Z,13.77
2022-10-31T10:32:32.958Z,12.82
2022-10-31T10:35:07.072Z,10.35
2022-10-31T10:37:42.160Z,13.38
2022-10-31T10:40:18.719Z,16.52
2022-10-31T10:43:27.324Z,14.20
2022-10-31T10:49:18.991Z,10.95
2022-10-31T10:52:02.791Z,14.77
2022-10-31T10:54:57.344Z,10.57
2022-10-31T10:57:42.639Z,19.70
2022-10-31T11:00:24.523Z,11.93
2022-10-31T11:02:57.998Z,14.10
2022-10-31T11:05:42.005Z,10.10
2022-10-31T11:08:12.423Z,13.23
2022-10-31T11:11:11.830Z,13.48
2022-10-31T11:14:10.835Z,15.48
2022-10-31T11:16:45.591Z,12.05
2022-10-31T11:19:20.647Z,19.20
2022-10-31T11:21:54.268Z,9.48
2022-10-31T11:24:26.814Z,16.80
2022-10-31T11:27:15.331Z,14.40
2022-10-31T11:29:44.722Z,14.68
2022-10-31T11:32:24.837Z,14.15
2022-10-31T11:35:00.162Z,11.82
2022-10-31T11:37:32.257Z,13.77
2022-10-31T11:40:09.453Z,21.70
2022-10-31T11:42:42.413Z,9.85
2022-10-31T11:45:19.814Z,11.00
2022-10-31T11:47:58.181Z,12.90
2022-10-31T11:50:34.583Z,19.38
2022-10-31T11:53:09.065Z,18.67
2022-10-31T11:55:41.188Z,18.00
2022-10-31T11:58:25.672Z,16.35
2022-10-31T12:00:58.561Z,13.60
2022-10-31T12:03:55.431Z,12.73
2022-10-31T12:06:37.846Z,11.23
2022-10-31T12:09:22.246Z,12.05
2022-10-31T12:12:05.244Z,21.67
2022-10-31T12:14:43.826Z,9.75
2022-10-31T14:44:25.188Z,10.63
2022-10-31T14:47:09.349Z,12.65
2022-10-31T14:53:55.188Z,18.20
2022-10-31T14:56:28.376Z,26.35
2022-10-31T14:59:01.774Z,48.13
2022-10-31T15:01:34.561Z,18.60
2022-10-31T15:04:22.875Z,18.85
2022-10-31T15:06:56.523Z,25.58
2022-10-31T15:09:27.097Z,18.35
2022-10-31T15:11:55.731Z,14.40
2022-10-31T15:14:27.944Z,25.27
2022-10-31T15:16:58.991Z,18.00
2022-10-31T15:19:30.426Z,26.05
2022-10-31T15:21:59.995Z,115.45
2022-10-31T15:24:35.052Z,130.88
2022-10-31T15:27:05.314Z,91.28
2022-10-31T15:29:35.920Z,48.30
2022-10-31T15:32:21.396Z,48.03
2022-10-31T15:34:50.264Z,47.45
2022-10-31T15:37:21.076Z,45.25
2022-10-31T15:39:51.687Z,54.13
2022-10-31T15:42:24.702Z,54.45
2022-10-31T15:45:01.031Z,64.28
2022-10-31T15:47:33.297Z,70.70
2022-10-31T15:50:03.863Z,61.45
2022-10-31T15:52:35.551Z,34.60
2022-10-31T15:55:07.263Z,45.15
2022-10-31T15:57:36.082Z,24.90
2022-10-31T16:00:23.065Z,35.42
2022-10-31T16:02:51.840Z,24.65
2022-10-31T16:05:21.822Z,21.27
2022-10-31T16:07:56.324Z,25.10
2022-10-31T16:10:26.289Z,25.60
2022-10-31T16:12:55.337Z,20.33
2022-10-31T16:15:25.524Z,15.50
2022-10-31T16:17:58.008Z,19.63
2022-10-31T16:20:33.359Z,11.27
2022-10-31T16:23:02.739Z,22.87
2022-10-31T16:25:38.068Z,13.30
2022-10-31T16:30:53.469Z,15.57
2022-10-31T16:33:28.583Z,20.43
2022-10-31T16:36:09.587Z,15.23
2022-10-31T16:38:44.581Z,17.73
2022-10-31T16:41:13.130Z,22.73
2022-10-31T16:43:41.703Z,16.67
2022-10-31T16:46:17.663Z,27.07
2022-10-31T16:48:46.627Z,21.27
2022-10-31T16:51:15.426Z,14.27
2022-10-31T16:53:46.682Z,27.27
2022-10-31T16:56:18.849Z,19.70
2022-10-31T16:58:47.598Z,25.60
2022-10-31T17:01:18.165Z,24.07
2022-10-31T17:03:46.927Z,20.30
2022-10-31T17:06:16.213Z,25.30
2022-10-31T17:08:45.202Z,17.53
2022-10-31T17:11:19.494Z,25.93
2022-10-31T17:13:48.078Z,21.00
2022-10-31T17:16:18.994Z,30.77
2022-10-31T17:18:47.761Z,37.20
2022-10-31T17:21:21.207Z,24.73
2022-10-31T17:23:50.034Z,28.80
2022-10-31T17:26:20.844Z,24.57
2022-10-31T17:28:49.562Z,35.13
2022-10-31T17:31:24.678Z,25.77
2022-10-31T17:34:02.211Z,23.40
2022-10-31T17:36:32.090Z,27.80
2022-10-31T17:39:00.568Z,26.00
2022-10-31T17:41:29.451Z,18.70
2022-10-31T17:43:58.782Z,21.00
2022-10-31T17:46:29.057Z,27.00
2022-10-31T17:48:57.789Z,29.00
2022-10-31T17:51:28.733Z,27.70
2022-10-31T17:53:57.292Z,25.60
2022-10-31T17:56:26.133Z,33.13
2022-10-31T17:58:54.771Z,30.20
2022-10-31T18:01:23.435Z,30.40
2022-10-31T18:03:56.725Z,27.63
2022-10-31T18:06:33.480Z,21.00
2022-10-31T18:09:04.877Z,28.20
2022-10-31T18:11:34.373Z,27.70
2022-10-31T18:14:02.894Z,20.57
2022-10-31T18:16:31.648Z,29.87
2022-10-31T18:19:02.167Z,30.57
2022-10-31T18:21:31.058Z,34.20
2022-10-31T18:24:01.068Z,30.30
2022-10-31T18:26:30.368Z,29.40
2022-10-31T18:28:59.092Z,27.10
2022-10-31T18:31:27.999Z,25.67
2022-10-31T18:33:58.336Z,32.07
2022-10-31T18:36:28.625Z,27.70
2022-10-31T18:39:00.003Z,34.77
2022-10-31T18:41:28.784Z,29.17
2022-10-31T18:44:00.372Z,26.53
2022-10-31T18:46:29.880Z,27.27
2022-10-31T18:48:58.481Z,25.83
2022-10-31T18:51:28.943Z,19.03
2022-10-31T18:53:59.783Z,24.27
2022-10-31T18:56:32.857Z,19.50
2022-10-31T18:59:02.478Z,23.63
2022-10-31T19:01:31.375Z,33.00
2022-10-31T19:04:01.109Z,30.47
2022-10-31T19:06:31.509Z,31.37
2022-10-31T19:09:01.742Z,40.70
2022-10-31T19:11:32.882Z,39.07
2022-10-31T19:14:01.872Z,26.17
2022-10-31T19:16:32.479Z,37.57
2022-10-31T19:19:01.745Z,21.27
2022-10-31T19:21:32.691Z,32.10
2022-10-31T19:24:02.301Z,23.07
2022-10-31T19:26:30.972Z,40.50
2022-10-31T19:28:59.793Z,104.27
2022-10-31T19:31:28.768Z,210.43
2022-10-31T19:33:58.076Z,161.30
2022-10-31T19:36:26.984Z,107.33
2022-10-31T19:38:58.314Z,59.87
2022-10-31T19:41:29.510Z,48.43
2022-10-31T19:44:01.761Z,76.23
2022-10-31T19:46:52.961Z,81.53
2022-10-31T19:49:20.062Z,63.17
2022-10-31T19:51:48.795Z,54.23
2022-10-31T19:54:19.199Z,47.73
2022-10-31T19:56:47.922Z,55.13
2022-10-31T19:59:16.708Z,56.37
2022-10-31T20:01:45.613Z,51.93
2022-10-31T20:04:14.382Z,48.37
2022-10-31T20:06:43.157Z,46.33
2022-10-31T20:09:14.240Z,65.53
2022-10-31T20:11:45.926Z,64.27
2022-10-31T20:14:16.807Z,49.77
2022-10-31T20:16:46.891Z,66.57
2022-10-31T20:19:16.025Z,85.63
2022-10-31T20:21:44.922Z,48.47
2022-10-31T20:24:13.871Z,65.90
2022-10-31T20:26:44.172Z,53.27
2022-10-31T20:29:16.255Z,52.07
2022-10-31T20:31:46.655Z,54.70
2022-10-31T20:34:15.809Z,58.30
2022-10-31T20:36:44.797Z,61.37
2022-10-31T20:39:13.543Z,55.40
2022-10-31T20:41:43.725Z,57.20
2022-10-31T20:44:12.837Z,55.93
2022-10-31T20:46:42.060Z,53.83
2022-10-31T20:49:11.265Z,54.03
2022-10-31T20:51:40.243Z,52.13
2022-10-31T20:54:12.539Z,51.87
2022-10-31T20:56:41.869Z,91.60
2022-10-31T20:59:15.281Z,58.00
2022-10-31T21:01:44.459Z,60.30
2022-10-31T21:04:13.798Z,55.57
2022-10-31T21:06:49.044Z,60.83
2022-10-31T21:09:19.169Z,52.07
2022-10-31T21:11:47.984Z,51.43
2022-10-31T21:14:19.090Z,47.93
2022-10-31T21:16:49.137Z,149.90
2022-10-31T21:19:17.900Z,106.77
2022-10-31T21:21:47.361Z,68.17
2022-10-31T21:24:20.903Z,72.80
2022-10-31T21:26:51.755Z,65.70
2022-10-31T21:29:23.361Z,130.93
2022-10-31T21:31:52.428Z,175.30
2022-10-31T21:34:22.841Z,142.87
2022-10-31T21:36:51.589Z,89.60
2022-10-31T21:39:21.313Z,77.83
2022-10-31T21:41:50.340Z,126.40
2022-10-31T21:44:19.268Z,120.53
2022-10-31T21:46:49.852Z,90.47
2022-10-31T21:49:19.506Z,97.93
2022-10-31T21:51:48.410Z,121.83
2022-10-31T21:54:28.342Z,526.90
2022-10-31T21:56:57.622Z,79.20
2022-10-31T21:59:26.958Z,113.07
2022-10-31T22:01:59.937Z,87.33
2022-10-31T22:04:29.256Z,96.20
2022-10-31T22:06:57.785Z,80.77
2022-10-31T22:09:26.580Z,91.63
2022-10-31T22:11:55.189Z,71.67
2022-10-31T22:14:24.392Z,66.93
2022-10-31T22:16:53.235Z,71.63
2022-10-31T22:19:23.509Z,50.97
2022-10-31T22:21:52.416Z,57.83
2022-10-31T22:24:21.319Z,47.20
2022-10-31T22:26:50.749Z,55.97
2022-10-31T22:29:21.684Z,66.70
2022-10-31T22:31:57.253Z,68.27
2022-10-31T22:34:29.915Z,65.93
2022-10-31T22:36:58.481Z,86.37
2022-10-31T22:39:27.190Z,72.63
2022-10-31T22:41:55.815Z,57.17
2022-10-31T22:44:24.516Z,60.87
2022-10-31T22:46:53.124Z,59.67
2022-10-31T22:49:21.667Z,60.00
2022-10-31T22:51:52.493Z,115.40
2022-10-31T22:54:21.239Z,136.10
2022-10-31T22:56:50.243Z,145.73
2022-10-31T22:59:19.016Z,130.40
2022-10-31T23:01:47.697Z,141.20
2022-10-31T23:04:17.346Z,116.37
2022-10-31T23:06:46.374Z,158.13
2022-10-31T23:09:18.744Z,195.27
2022-10-31T23:11:47.843Z,184.80
2022-10-31T23:14:20.874Z,167.27
2022-10-31T23:16:51.986Z,197.83
2022-10-31T23:19:23.836Z,169.70
2022-10-31T23:21:57.543Z,119.07
2022-10-31T23:24:34.741Z,115.20
2022-10-31T23:27:08.663Z,75.13
2022-10-31T23:29:43.428Z,122.63
2022-10-31T23:32:15.175Z,167.90
2022-10-31T23:34:44.044Z,111.30
2022-10-31T23:37:13.247Z,133.13
2022-10-31T23:39:43.486Z,126.80
2022-10-31T23:42:12.117Z,136.63
2022-10-31T23:44:40.705Z,131.20
2022-10-31T23:47:09.658Z,143.87
2022-10-31T23:49:38.235Z,108.93
2022-10-31T23:52:07.833Z,114.17
2022-10-31T23:54:36.593Z,123.43
2022-10-31T23:57:09.767Z,79.53
2022-10-31T23:59:38.562Z,83.90
